Time;durP1;ratioP1;P1;durP2;ratioP2;P2;SDS_P1;SDS_P2;PMS_P1;PMS_P2;Temp;Humidity;BMP_temperature;BMP_pressure;BME280_temperature;BME280_humidity;BME280_pressure;Samples;Min_cycle;Max_cycle;Signal;HPM_P1;HPM_P2
2022/10/05 00:02:23;;;;;;;2.13;2.07;;;;;;;;;;4971138;28;20446;-68
2022/10/05 00:04:54;;;;;;;2.13;1.90;;;;;;;;;;4970835;28;20488;-68
2022/10/05 00:07:21;;;;;;;1.97;1.97;;;;;;;;;;4970348;28;20493;-68
2022/10/05 00:09:54;;;;;;;2.23;2.13;;;;;;;;;;4971415;28;20436;-68
2022/10/05 00:12:21;;;;;;;2.60;2.40;;;;;;;;;;4971635;28;20457;-69
2022/10/05 00:14:48;;;;;;;3.10;2.30;;;;;;;;;;4971012;28;20446;-68
2022/10/05 00:17:19;;;;;;;2.37;2.27;;;;;;;;;;4970528;28;20444;-69
2022/10/05 00:19:45;;;;;;;1.83;1.83;;;;;;;;;;4971110;28;20605;-69
2022/10/05 00:22:11;;;;;;;2.00;2.00;;;;;;;;;;4971140;28;20450;-69
2022/10/05 00:24:37;;;;;;;2.30;2.20;;;;;;;;;;4969586;28;20449;-68
2022/10/05 00:27:19;;;;;;;2.50;2.50;;;;;;;;;;4970625;28;20497;-68
2022/10/05 00:29:46;;;;;;;1.93;1.83;;;;;;;;;;4971206;28;20445;-69
2022/10/05 00:32:12;;;;;;;1.83;1.83;;;;;;;;;;4971140;28;20524;-68
2022/10/05 00:34:38;;;;;;;1.50;1.50;;;;;;;;;;4970618;28;20462;-68
2022/10/05 00:37:04;;;;;;;1.70;1.70;;;;;;;;;;4970844;28;20560;-68
2022/10/05 00:39:31;;;;;;;2.10;2.00;;;;;;;;;;4970283;28;20430;-69
2022/10/05 00:42:09;;;;;;;3.90;1.50;;;;;;;;;;4970508;28;20524;-68
2022/10/05 00:45:01;;;;;;;1.90;1.30;;;;;;;;;;4970992;28;20450;-68
2022/10/05 00:47:49;;;;;;;1.70;1.60;;;;;;;;;;4967862;28;21020;-68
2022/10/05 00:50:35;;;;;;;5.40;1.97;;;;;;;;;;4970974;28;20441;-68
2022/10/05 00:53:08;;;;;;;2.20;1.70;;;;;;;;;;4970649;28;20445;-68
2022/10/05 00:55:37;;;;;;;5.93;3.83;;;;;;;;;;4969235;28;20434;-69
2022/10/05 00:58:15;;;;;;;1.70;1.70;;;;;;;;;;4969414;28;20512;-68
2022/10/05 01:01:05;;;;;;;1.70;1.70;;;;;;;;;;4983222;28;20450;-69
2022/10/05 01:03:39;;;;;;;1.83;1.73;;;;;;;;;;4969962;28;20449;-68
2022/10/05 01:06:11;;;;;;;1.50;1.50;;;;;;;;;;4969232;28;20478;-68
2022/10/05 01:08:51;;;;;;;1.20;1.20;;;;;;;;;;4970487;28;20430;-68
2022/10/05 01:11:26;;;;;;;2.10;2.10;;;;;;;;;;4970049;28;20942;-68
2022/10/05 01:13:52;;;;;;;1.90;1.90;;;;;;;;;;4970199;28;20947;-67
2022/10/05 01:16:23;;;;;;;2.60;1.57;;;;;;;;;;4969062;28;20504;-68
2022/10/05 01:18:55;;;;;;;17.20;1.80;;;;;;;;;;4970374;28;20433;-69
2022/10/05 01:21:23;;;;;;;1.70;1.60;;;;;;;;;;4970369;28;20525;-68
2022/10/05 01:24:17;;;;;;;1.60;1.60;;;;;;;;;;4969418;28;20430;-68
2022/10/05 01:26:46;;;;;;;1.97;1.87;;;;;;;;;;4968316;28;20532;-68
2022/10/05 01:29:18;;;;;;;1.40;1.40;;;;;;;;;;4971697;28;20433;-68
2022/10/05 01:32:20;;;;;;;3.07;1.93;;;;;;;;;;4974039;28;20440;-68
2022/10/05 01:34:46;;;;;;;1.43;1.43;;;;;;;;;;4914676;29;20432;-68
2022/10/05 01:37:18;;;;;;;9.93;1.80;;;;;;;;;;4960098;28;20472;-68
2022/10/05 01:39:53;;;;;;;7.00;1.40;;;;;;;;;;4974537;28;20429;-68
2022/10/05 01:42:23;;;;;;;3.87;3.50;;;;;;;;;;4973995;28;20426;-68
2022/10/05 01:44:49;;;;;;;4.10;1.90;;;;;;;;;;4974175;28;20529;-68
2022/10/05 01:47:38;;;;;;;2.87;2.00;;;;;;;;;;4974166;28;20564;-68
2022/10/05 01:50:07;;;;;;;3.60;1.90;;;;;;;;;;4946241;28;20923;-68
2022/10/05 01:52:33;;;;;;;1.47;1.47;;;;;;;;;;4974069;28;20952;-68
2022/10/05 01:55:17;;;;;;;1.87;1.77;;;;;;;;;;4972279;28;20421;-68
2022/10/05 01:57:55;;;;;;;1.43;1.43;;;;;;;;;;4973822;28;20492;-68
2022/10/05 02:00:21;;;;;;;1.80;1.80;;;;;;;;;;4974262;28;20445;-68
2022/10/05 02:02:48;;;;;;;5.73;1.97;;;;;;;;;;4972972;28;20942;-69
2022/10/05 02:05:15;;;;;;;6.60;1.50;;;;;;;;;;4974042;28;20458;-68
2022/10/05 02:07:45;;;;;;;6.83;2.23;;;;;;;;;;4973297;28;20493;-68
2022/10/05 02:10:24;;;;;;;2.23;2.13;;;;;;;;;;4973977;28;20556;-68
2022/10/05 02:12:55;;;;;;;3.20;1.90;;;;;;;;;;4972753;28;20414;-68
2022/10/05 02:15:32;;;;;;;2.70;2.60;;;;;;;;;;4973625;28;20558;-68
2022/10/05 02:18:01;;;;;;;2.80;2.13;;;;;;;;;;4973662;28;20448;-68
2022/10/05 02:20:29;;;;;;;4.70;2.27;;;;;;;;;;4973627;28;20536;-69
2022/10/05 02:23:02;;;;;;;3.03;2.93;;;;;;;;;;4973384;28;20934;-68
2022/10/05 02:25:34;;;;;;;5.90;2.10;;;;;;;;;;4972443;28;20990;-68
2022/10/05 02:28:11;;;;;;;2.97;2.67;;;;;;;;;;4973475;28;20481;-68
2022/10/05 02:30:40;;;;;;;6.00;2.80;;;;;;;;;;4973345;28;20448;-68
2022/10/05 02:33:09;;;;;;;2.40;2.40;;;;;;;;;;4973344;28;20565;-68
2022/10/05 02:35:36;;;;;;;2.60;2.50;;;;;;;;;;4972798;28;20438;-68
2022/10/05 02:38:19;;;;;;;2.60;2.40;;;;;;;;;;4971799;28;20556;-68
2022/10/05 02:41:04;;;;;;;4.13;2.40;;;;;;;;;;4971240;28;20521;-68
2022/10/05 02:43:39;;;;;;;2.93;2.90;;;;;;;;;;4973027;28;20461;-68
2022/10/05 02:46:14;;;;;;;5.77;3.50;;;;;;;;;;4972743;28;20440;-68
2022/10/05 02:48:49;;;;;;;3.47;3.20;;;;;;;;;;4973031;28;20426;-68
2022/10/05 02:51:20;;;;;;;6.53;3.97;;;;;;;;;;4972254;28;20434;-68
2022/10/05 02:53:46;;;;;;;4.30;3.00;;;;;;;;;;4972638;28;20434;-68
2022/10/05 02:56:41;;;;;;;3.40;3.30;;;;;;;;;;4972629;28;20440;-68
2022/10/05 02:59:14;;;;;;;3.33;3.23;;;;;;;;;;4960561;28;20505;-68
2022/10/05 03:01:48;;;;;;;9.30;4.70;;;;;;;;;;4972148;28;20469;-69
2022/10/05 03:04:33;;;;;;;6.10;2.37;;;;;;;;;;4971013;28;20536;-68
2022/10/05 03:06:59;;;;;;;6.00;3.17;;;;;;;;;;4971055;28;20488;-68
2022/10/05 03:09:27;;;;;;;4.50;2.97;;;;;;;;;;4972433;28;20437;-68
2022/10/05 03:12:00;;;;;;;2.70;2.60;;;;;;;;;;4972924;28;20434;-69
2022/10/05 03:14:42;;;;;;;2.20;2.20;;;;;;;;;;4971509;28;20445;-68
2022/10/05 03:17:14;;;;;;;2.00;2.00;;;;;;;;;;4971903;28;20432;-68
2022/10/05 03:19:55;;;;;;;3.07;2.50;;;;;;;;;;4973034;28;20778;-68
2022/10/05 03:22:30;;;;;;;3.03;2.23;;;;;;;;;;4972353;28;20469;-68
2022/10/05 03:25:11;;;;;;;2.53;2.40;;;;;;;;;;4972521;28;20731;-68
2022/10/05 03:27:47;;;;;;;2.40;2.00;;;;;;;;;;4987551;28;20509;-68
2022/10/05 03:30:17;;;;;;;6.60;1.90;;;;;;;;;;4971632;28;20957;-68
2022/10/05 03:33:02;;;;;;;2.30;2.30;;;;;;;;;;4971917;28;20540;-68
2022/10/05 03:35:47;;;;;;;2.70;2.40;;;;;;;;;;4971415;28;20453;-68
2022/10/05 03:38:19;;;;;;;2.73;2.40;;;;;;;;;;4971416;28;20485;-68
2022/10/05 03:40:44;;;;;;;3.03;2.37;;;;;;;;;;4971579;28;20450;-68
2022/10/05 03:43:29;;;;;;;2.90;2.43;;;;;;;;;;4971689;28;20441;-68
2022/10/05 03:45:55;;;;;;;3.13;2.40;;;;;;;;;;4970084;28;20426;-68
2022/10/05 03:48:39;;;;;;;5.57;2.57;;;;;;;;;;4972263;28;20867;-68
2022/10/05 03:51:17;;;;;;;3.37;3.17;;;;;;;;;;4971938;28;20950;-68
2022/10/05 03:53:45;;;;;;;7.40;2.33;;;;;;;;;;4970045;28;20453;-68
2022/10/05 03:56:14;;;;;;;2.43;2.23;;;;;;;;;;4971350;28;20430;-68
2022/10/05 03:58:55;;;;;;;4.37;2.50;;;;;;;;;;4971814;28;20450;-68
2022/10/05 04:01:42;;;;;;;2.13;1.97;;;;;;;;;;4971241;28;20438;-68
2022/10/05 04:04:11;;;;;;;6.83;2.10;;;;;;;;;;4966950;28;20430;-69
2022/10/05 04:06:46;;;;;;;2.23;2.20;;;;;;;;;;4968729;28;20470;-68
2022/10/05 04:09:29;;;;;;;2.20;2.20;;;;;;;;;;4970278;28;20445;-68
2022/10/05 04:11:58;;;;;;;2.40;2.30;;;;;;;;;;4971328;28;20468;-68
2022/10/05 04:14:31;;;;;;;2.50;2.30;;;;;;;;;;4970333;28;20465;-68
2022/10/05 04:16:59;;;;;;;2.20;2.10;;;;;;;;;;4969875;28;20445;-68
2022/10/05 04:19:31;;;;;;;2.73;2.53;;;;;;;;;;4969402;28;20422;-68
2022/10/05 04:22:17;;;;;;;3.23;2.30;;;;;;;;;;4970302;28;20418;-69
2022/10/05 04:24:46;;;;;;;4.23;2.40;;;;;;;;;;4968783;28;20450;-68
2022/10/05 04:27:16;;;;;;;2.83;2.73;;;;;;;;;;4969630;28;21047;-68
2022/10/05 04:29:50;;;;;;;3.23;2.10;;;;;;;;;;4970171;28;20998;-68
2022/10/05 04:32:25;;;;;;;2.30;2.30;;;;;;;;;;4968610;28;20445;-68
2022/10/05 04:34:54;;;;;;;2.57;2.47;;;;;;;;;;4970311;28;20437;-68
2022/10/05 04:37:44;;;;;;;2.13;2.03;;;;;;;;;;4969196;28;20560;-68
2022/10/05 04:40:10;;;;;;;4.47;3.90;;;;;;;;;;4969797;28;20440;-68
2022/10/05 04:42:39;;;;;;;2.83;2.73;;;;;;;;;;4969903;28;20446;-68
2022/10/05 04:45:05;;;;;;;2.87;2.77;;;;;;;;;;4970190;28;20445;-69
2022/10/05 04:47:58;;;;;;;2.77;2.57;;;;;;;;;;4969595;28;20481;-68
2022/10/05 04:50:31;;;;;;;2.80;2.60;;;;;;;;;;4946962;28;20438;-69
2022/10/05 04:53:09;;;;;;;2.57;2.53;;;;;;;;;;4968814;28;20492;-68
2022/10/05 04:55:47;;;;;;;3.10;2.40;;;;;;;;;;4968948;28;20441;-68
2022/10/05 04:58:19;;;;;;;2.30;2.30;;;;;;;;;;4970286;28;20778;-67
2022/10/05 05:00:45;;;;;;;4.07;3.77;;;;;;;;;;4968922;28;20433;-68
2022/10/05 05:03:20;;;;;;;2.67;2.50;;;;;;;;;;4969803;28;20958;-68
2022/10/05 05:05:51;;;;;;;2.10;2.10;;;;;;;;;;4969140;28;20946;-68
2022/10/05 05:08:19;;;;;;;2.50;2.40;;;;;;;;;;4970029;28;20845;-68
2022/10/05 05:11:04;;;;;;;2.30;2.30;;;;;;;;;;4969627;28;20429;-68
2022/10/05 05:13:48;;;;;;;2.93;2.73;;;;;;;;;;4968694;28;21371;-68
2022/10/05 05:16:14;;;;;;;2.50;2.50;;;;;;;;;;4968335;28;20442;-68
2022/10/05 05:19:04;;;;;;;3.27;3.17;;;;;;;;;;4968173;28;20441;-69
2022/10/05 05:21:48;;;;;;;3.40;3.30;;;;;;;;;;4961763;28;20540;-68
2022/10/05 05:24:24;;;;;;;3.33;3.23;;;;;;;;;;4969304;28;20504;-68
2022/10/05 05:26:59;;;;;;;3.20;3.10;;;;;;;;;;4969084;28;20488;-68
2022/10/05 05:29:44;;;;;;;3.93;3.73;;;;;;;;;;4968414;28;20834;-68
2022/10/05 05:32:17;;;;;;;3.40;3.30;;;;;;;;;;4969834;28;20930;-68
2022/10/05 05:35:08;;;;;;;3.10;2.80;;;;;;;;;;4969113;28;20446;-68
2022/10/05 05:37:34;;;;;;;5.53;5.10;;;;;;;;;;4968637;28;20903;-68
2022/10/05 05:40:06;;;;;;;2.90;2.80;;;;;;;;;;4969786;28;20549;-67
2022/10/05 05:42:32;;;;;;;4.00;3.80;;;;;;;;;;4967825;28;20452;-68
2022/10/05 05:45:03;;;;;;;3.50;3.40;;;;;;;;;;4967165;28;20437;-68
2022/10/05 05:47:36;;;;;;;3.70;3.40;;;;;;;;;;4968380;28;20507;-69
2022/10/05 05:50:05;;;;;;;3.57;3.37;;;;;;;;;;4969441;28;20445;-68
2022/10/05 05:52:38;;;;;;;5.37;3.87;;;;;;;;;;4969488;28;20442;-68
2022/10/05 05:55:12;;;;;;;4.83;3.40;;;;;;;;;;4968090;28;20508;-69
2022/10/05 05:57:45;;;;;;;5.33;3.30;;;;;;;;;;4969071;28;20460;-69
2022/10/05 06:00:11;;;;;;;6.10;2.50;;;;;;;;;;4969195;28;20806;-69
2022/10/05 06:02:43;;;;;;;2.93;2.83;;;;;;;;;;4969919;28;20516;-68
2022/10/05 06:05:17;;;;;;;2.70;2.50;;;;;;;;;;4968240;28;20448;-68
2022/10/05 06:07:43;;;;;;;3.13;3.03;;;;;;;;;;4969045;28;20499;-69
2022/10/05 06:10:25;;;;;;;3.40;3.20;;;;;;;;;;4968681;28;20453;-69
2022/10/05 06:12:53;;;;;;;3.00;2.80;;;;;;;;;;4970115;28;20496;-69
2022/10/05 06:15:21;;;;;;;2.83;2.83;;;;;;;;;;4969216;28;20811;-68
2022/10/05 06:17:53;;;;;;;5.03;2.60;;;;;;;;;;4971311;28;20446;-70
2022/10/05 06:20:22;;;;;;;3.67;3.07;;;;;;;;;;4972236;28;20448;-68
2022/10/05 06:22:49;;;;;;;2.90;2.90;;;;;;;;;;4972038;28;20966;-69
2022/10/05 06:25:34;;;;;;;20.03;3.20;;;;;;;;;;4972907;28;20426;-68
2022/10/05 06:28:11;;;;;;;3.60;3.20;;;;;;;;;;4970675;28;20483;-69
2022/10/05 06:30:48;;;;;;;3.20;2.90;;;;;;;;;;4972576;28;20456;-70
2022/10/05 06:33:14;;;;;;;3.90;3.67;;;;;;;;;;4971806;28;20962;-68
2022/10/05 06:36:09;;;;;;;3.90;3.53;;;;;;;;;;4972529;28;20454;-68
2022/10/05 06:38:38;;;;;;;3.23;3.03;;;;;;;;;;4920485;28;21020;-70
2022/10/05 06:41:10;;;;;;;5.10;4.70;;;;;;;;;;4972760;28;20446;-69
2022/10/05 06:43:43;;;;;;;4.90;4.70;;;;;;;;;;4971372;28;20438;-69
2022/10/05 06:46:18;;;;;;;6.13;5.10;;;;;;;;;;4971636;28;20525;-69
2022/10/05 06:48:50;;;;;;;7.37;6.67;;;;;;;;;;4972238;28;20450;-69
2022/10/05 06:51:19;;;;;;;6.53;6.03;;;;;;;;;;4971269;28;20452;-68
2022/10/05 06:53:45;;;;;;;6.50;6.10;;;;;;;;;;4972872;28;20450;-69
2022/10/05 06:56:19;;;;;;;13.07;6.30;;;;;;;;;;4971153;28;20444;-69
2022/10/05 06:58:45;;;;;;;10.50;7.27;;;;;;;;;;4972592;28;20444;-69
2022/10/05 07:01:26;;;;;;;7.43;6.83;;;;;;;;;;4972108;28;20430;-68
2022/10/05 07:04:02;;;;;;;10.37;6.87;;;;;;;;;;4972326;28;20446;-69
2022/10/05 07:06:41;;;;;;;8.07;7.30;;;;;;;;;;4969797;28;20469;-70
2022/10/05 07:09:15;;;;;;;11.90;8.53;;;;;;;;;;4968951;28;20532;-68
2022/10/05 07:11:40;;;;;;;9.97;7.63;;;;;;;;;;4971040;28;20872;-71
2022/10/05 07:14:25;;;;;;;9.87;7.60;;;;;;;;;;4971417;28;20505;-69
2022/10/05 07:17:09;;;;;;;5.57;5.00;;;;;;;;;;4969049;28;20453;-68
2022/10/05 07:19:56;;;;;;;5.10;4.70;;;;;;;;;;4970387;28;20496;-68
2022/10/05 07:22:30;;;;;;;10.40;4.33;;;;;;;;;;4969829;28;20996;-70
2022/10/05 07:25:10;;;;;;;6.83;3.43;;;;;;;;;;4970219;28;20552;-69
2022/10/05 07:27:41;;;;;;;3.70;3.47;;;;;;;;;;4971117;28;20628;-68
2022/10/05 07:30:07;;;;;;;4.00;2.87;;;;;;;;;;4969202;28;20430;-70
2022/10/05 07:32:45;;;;;;;3.93;3.60;;;;;;;;;;4972247;28;20434;-69
2022/10/05 07:38:11;;;;;;;4.57;3.93;;;;;;;;;;4970842;28;20461;-68
2022/10/05 07:40:43;;;;;;;4.90;4.70;;;;;;;;;;4971514;28;20943;-68
2022/10/05 07:43:26;;;;;;;3.73;3.57;;;;;;;;;;4971437;28;20809;-68
2022/10/05 07:45:58;;;;;;;10.33;3.13;;;;;;;;;;4971892;28;20438;-69
2022/10/05 07:48:34;;;;;;;14.27;2.70;;;;;;;;;;4971233;28;20458;-68
2022/10/05 07:51:11;;;;;;;2.60;2.53;;;;;;;;;;4972371;28;20513;-68
2022/10/05 07:53:40;;;;;;;3.23;3.03;;;;;;;;;;4971271;28;20452;-68
2022/10/05 07:56:29;;;;;;;2.83;2.80;;;;;;;;;;4969855;28;21706;-64
2022/10/05 07:58:58;;;;;;;3.60;3.40;;;;;;;;;;4963218;28;20462;-68
2022/10/05 08:01:25;;;;;;;3.00;2.90;;;;;;;;;;4970915;28;20958;-69
2022/10/05 08:04:01;;;;;;;2.13;2.03;;;;;;;;;;4971861;28;20489;-68
2022/10/05 08:06:46;;;;;;;2.70;2.50;;;;;;;;;;4970105;28;20461;-68
2022/10/05 08:09:19;;;;;;;3.30;3.10;;;;;;;;;;4970296;28;20449;-70
2022/10/05 08:11:58;;;;;;;2.60;2.50;;;;;;;;;;4969403;28;20525;-68
2022/10/05 08:14:34;;;;;;;2.93;2.83;;;;;;;;;;4971350;28;20540;-69
2022/10/05 08:17:03;;;;;;;3.47;3.17;;;;;;;;;;4971393;28;20442;-68
2022/10/05 08:19:33;;;;;;;2.80;2.77;;;;;;;;;;4971444;28;20437;-68
2022/10/05 08:21:59;;;;;;;2.63;2.43;;;;;;;;;;4970604;28;20850;-68
2022/10/05 08:24:50;;;;;;;2.60;2.50;;;;;;;;;;4971127;28;20981;-68
2022/10/05 08:27:23;;;;;;;3.67;3.17;;;;;;;;;;4970939;28;20474;-68
2022/10/05 08:29:56;;;;;;;2.90;2.80;;;;;;;;;;4971293;28;20517;-68
2022/10/05 08:32:24;;;;;;;11.20;3.00;;;;;;;;;;4969442;28;20517;-69
2022/10/05 08:34:53;;;;;;;3.40;3.20;;;;;;;;;;4970533;28;20438;-68
2022/10/05 08:37:24;;;;;;;3.50;3.30;;;;;;;;;;4970006;28;20457;-69
2022/10/05 08:40:22;;;;;;;2.43;2.17;;;;;;;;;;4970158;28;20441;-68
2022/10/05 08:42:56;;;;;;;2.87;2.70;;;;;;;;;;4971322;28;20943;-69
2022/10/05 08:45:22;;;;;;;3.23;3.00;;;;;;;;;;4970547;28;20564;-68
2022/10/05 08:47:58;;;;;;;5.00;2.70;;;;;;;;;;4970961;28;20978;-68
2022/10/05 08:50:24;;;;;;;3.00;2.77;;;;;;;;;;4970650;28;20477;-68
2022/10/05 08:53:11;;;;;;;6.30;3.10;;;;;;;;;;4970288;28;20434;-68
2022/10/05 08:55:46;;;;;;;3.30;3.20;;;;;;;;;;4969755;28;20426;-67
2022/10/05 08:58:30;;;;;;;3.13;2.93;;;;;;;;;;4971172;28;20421;-68
2022/10/05 09:00:56;;;;;;;2.07;1.97;;;;;;;;;;4970264;28;20810;-68
2022/10/05 09:03:22;;;;;;;1.90;1.90;;;;;;;;;;4970407;28;20448;-68
2022/10/05 09:05:57;;;;;;;2.20;1.20;;;;;;;;;;4970315;28;20453;-68
2022/10/05 09:08:32;;;;;;;1.33;1.33;;;;;;;;;;4970192;28;20813;-69
2022/10/05 09:11:02;;;;;;;1.03;1.00;;;;;;;;;;4970531;28;20508;-70
2022/10/05 09:13:31;;;;;;;4.60;1.43;;;;;;;;;;4970799;28;20434;-69
2022/10/05 09:15:57;;;;;;;10.00;2.90;;;;;;;;;;4969691;28;20476;-68
2022/10/05 09:18:39;;;;;;;11.73;3.23;;;;;;;;;;4969530;28;20461;-69
2022/10/05 09:21:25;;;;;;;1.10;1.10;;;;;;;;;;4969850;28;20456;-68
2022/10/05 09:24:10;;;;;;;1.10;1.10;;;;;;;;;;4970615;28;20518;-68
2022/10/05 09:26:55;;;;;;;1.13;1.13;;;;;;;;;;4969576;28;20457;-69
2022/10/05 09:29:39;;;;;;;1.00;1.00;;;;;;;;;;4967136;28;20453;-68
2022/10/05 09:32:07;;;;;;;2.10;1.10;;;;;;;;;;4970532;28;20437;-68
2022/10/05 09:34:36;;;;;;;2.27;2.17;;;;;;;;;;4970716;28;20509;-69
2022/10/05 09:37:13;;;;;;;3.10;3.00;;;;;;;;;;4969574;28;20985;-69
2022/10/05 09:39:57;;;;;;;6.20;1.13;;;;;;;;;;4969952;28;20449;-68
2022/10/05 09:42:23;;;;;;;0.90;0.90;;;;;;;;;;4969450;28;20884;-70
2022/10/05 09:44:52;;;;;;;2.77;0.90;;;;;;;;;;4970371;28;20513;-69
2022/10/05 09:47:37;;;;;;;2.43;1.13;;;;;;;;;;4970212;28;20489;-69
2022/10/05 09:50:22;;;;;;;2.27;0.87;;;;;;;;;;4970670;28;20978;-68
2022/10/05 09:52:51;;;;;;;0.83;0.83;;;;;;;;;;4973706;28;20446;-68
2022/10/05 09:55:39;;;;;;;2.50;1.13;;;;;;;;;;4974183;28;20417;-69
2022/10/05 09:58:16;;;;;;;0.90;0.90;;;;;;;;;;4973006;28;20537;-69
2022/10/05 10:00:51;;;;;;;1.70;1.70;;;;;;;;;;4973288;28;20973;-69
2022/10/05 10:03:38;;;;;;;1.10;1.10;;;;;;;;;;4973634;28;20438;-69
2022/10/05 10:06:11;;;;;;;0.70;0.70;;;;;;;;;;4972787;28;20436;-69
2022/10/05 10:08:40;;;;;;;1.10;1.10;;;;;;;;;;4973687;28;20445;-70
2022/10/05 10:11:18;;;;;;;0.80;0.70;;;;;;;;;;4973816;28;21001;-68
2022/10/05 10:13:52;;;;;;;0.80;0.80;;;;;;;;;;4973628;28;20430;-70
2022/10/05 10:16:36;;;;;;;1.33;0.87;;;;;;;;;;4972417;28;20450;-68
2022/10/05 10:19:02;;;;;;;0.80;0.80;;;;;;;;;;4973887;28;20524;-70
2022/10/05 10:22:00;;;;;;;0.70;0.70;;;;;;;;;;4973187;28;20482;-69
2022/10/05 10:24:26;;;;;;;0.70;0.70;;;;;;;;;;4941074;28;21189;-71
2022/10/05 10:26:52;;;;;;;0.80;0.80;;;;;;;;;;4972998;28;20508;-68
2022/10/05 10:29:37;;;;;;;1.40;0.63;;;;;;;;;;4973376;28;20464;-69
2022/10/05 10:32:21;;;;;;;8.03;0.70;;;;;;;;;;4971666;28;20430;-69
2022/10/05 10:35:08;;;;;;;1.17;0.80;;;;;;;;;;4973257;28;20429;-69
2022/10/05 10:37:38;;;;;;;1.23;0.60;;;;;;;;;;4972345;28;21025;-69
2022/10/05 10:40:13;;;;;;;1.10;1.03;;;;;;;;;;4973109;28;20440;-70
2022/10/05 10:42:58;;;;;;;4.17;0.80;;;;;;;;;;4973392;28;20805;-70
2022/10/05 10:45:27;;;;;;;0.73;0.73;;;;;;;;;;4972977;28;20425;-69
2022/10/05 10:48:00;;;;;;;0.80;0.80;;;;;;;;;;4973180;28;20488;-69
2022/10/05 10:50:39;;;;;;;0.90;0.90;;;;;;;;;;4972962;28;20434;-70
2022/10/05 10:53:11;;;;;;;1.80;0.87;;;;;;;;;;4973072;28;20446;-69
2022/10/05 10:55:46;;;;;;;0.87;0.87;;;;;;;;;;4972930;28;20414;-69
2022/10/05 10:58:15;;;;;;;0.60;0.60;;;;;;;;;;4973126;28;20978;-70
2022/10/05 11:00:53;;;;;;;0.80;0.80;;;;;;;;;;4972353;28;20445;-69
2022/10/05 11:03:28;;;;;;;0.60;0.60;;;;;;;;;;4971081;28;20446;-70
2022/10/05 11:06:11;;;;;;;1.00;1.00;;;;;;;;;;4972178;28;20426;-70
2022/10/05 11:08:59;;;;;;;2.20;0.80;;;;;;;;;;4973040;28;20528;-69
2022/10/05 11:11:43;;;;;;;0.60;0.60;;;;;;;;;;4972897;28;20449;-70
2022/10/05 11:14:27;;;;;;;0.93;0.93;;;;;;;;;;4971866;28;20437;-69
2022/10/05 11:17:08;;;;;;;1.10;0.80;;;;;;;;;;4972282;28;20434;-69
2022/10/05 11:19:45;;;;;;;1.10;1.10;;;;;;;;;;4972712;28;20977;-68
2022/10/05 11:22:29;;;;;;;1.13;0.87;;;;;;;;;;4971276;28;20434;-70
2022/10/05 11:25:14;;;;;;;0.80;0.80;;;;;;;;;;4986287;28;20926;-69
2022/10/05 11:27:59;;;;;;;1.20;1.20;;;;;;;;;;4971158;28;20485;-68
2022/10/05 11:30:40;;;;;;;0.90;0.90;;;;;;;;;;4972436;28;20434;-70
2022/10/05 11:33:25;;;;;;;0.60;0.60;;;;;;;;;;4971222;28;20516;-68
2022/10/05 11:36:07;;;;;;;0.70;0.70;;;;;;;;;;4971647;28;20446;-70
2022/10/05 11:39:01;;;;;;;3.70;1.10;;;;;;;;;;4971951;28;20488;-70
2022/10/05 11:41:26;;;;;;;0.77;0.77;;;;;;;;;;4942178;28;20434;-70
2022/10/05 11:44:11;;;;;;;0.70;0.70;;;;;;;;;;4972179;28;20421;-70
2022/10/05 11:46:54;;;;;;;2.03;0.80;;;;;;;;;;4972117;28;20477;-69
2022/10/05 11:49:26;;;;;;;0.70;0.70;;;;;;;;;;4972522;28;20410;-70
2022/10/05 11:51:58;;;;;;;1.40;0.83;;;;;;;;;;4971676;28;20549;-69
2022/10/05 11:54:27;;;;;;;3.30;1.50;;;;;;;;;;4971263;28;20481;-70
2022/10/05 11:57:07;;;;;;;1.07;0.97;;;;;;;;;;4972050;28;20453;-70
2022/10/05 11:59:38;;;;;;;2.03;1.00;;;;;;;;;;4971525;28;20938;-68
2022/10/05 12:02:23;;;;;;;0.80;0.80;;;;;;;;;;4970900;28;20429;-70
2022/10/05 12:04:52;;;;;;;2.00;0.90;;;;;;;;;;4971126;28;20986;-70
2022/10/05 12:07:32;;;;;;;1.87;0.80;;;;;;;;;;4970813;28;20492;-69
2022/10/05 12:10:34;;;;;;;3.23;0.83;;;;;;;;;;4971745;28;20481;-70
2022/10/05 12:13:12;;;;;;;3.00;0.67;;;;;;;;;;4895484;29;20776;-70
2022/10/05 12:15:41;;;;;;;1.73;0.90;;;;;;;;;;4963265;28;20480;-69
2022/10/05 12:18:31;;;;;;;2.50;0.90;;;;;;;;;;4971598;28;20430;-69
2022/10/05 12:21:09;;;;;;;1.43;0.70;;;;;;;;;;4961807;28;20434;-70
2022/10/05 12:23:44;;;;;;;0.70;0.70;;;;;;;;;;4971093;28;20469;-69
2022/10/05 12:26:20;;;;;;;1.00;0.90;;;;;;;;;;4971345;28;20938;-70
2022/10/05 12:28:49;;;;;;;1.33;0.70;;;;;;;;;;4971272;28;20472;-69
2022/10/05 12:31:38;;;;;;;0.97;0.97;;;;;;;;;;4971415;28;20418;-68
2022/10/05 12:34:24;;;;;;;9.63;1.07;;;;;;;;;;4970710;28;20513;-70
2022/10/05 12:36:54;;;;;;;0.67;0.67;;;;;;;;;;4970044;28;20471;-68
2022/10/05 12:39:26;;;;;;;0.80;0.80;;;;;;;;;;4970915;28;20488;-70
2022/10/05 12:42:08;;;;;;;0.60;0.60;;;;;;;;;;4971602;28;20418;-68
2022/10/05 12:44:33;;;;;;;1.03;0.70;;;;;;;;;;4971348;28;20452;-68
2022/10/05 12:47:03;;;;;;;1.03;0.70;;;;;;;;;;4969007;28;20482;-69
2022/10/05 12:49:47;;;;;;;2.20;0.60;;;;;;;;;;4985270;28;20776;-68
2022/10/05 12:52:22;;;;;;;0.77;0.77;;;;;;;;;;4971149;28;20509;-68
2022/10/05 12:54:52;;;;;;;0.70;0.70;;;;;;;;;;4971020;28;20786;-68
2022/10/05 12:57:24;;;;;;;8.23;1.17;;;;;;;;;;4970006;28;20450;-69
2022/10/05 12:59:54;;;;;;;5.80;0.63;;;;;;;;;;4970950;28;20540;-69
2022/10/05 13:02:26;;;;;;;1.63;1.00;;;;;;;;;;4971026;28;20422;-69
2022/10/05 13:04:57;;;;;;;0.80;0.80;;;;;;;;;;4970723;28;20438;-68
2022/10/05 13:07:26;;;;;;;0.97;0.60;;;;;;;;;;4969886;28;20531;-70
2022/10/05 13:10:10;;;;;;;1.00;1.00;;;;;;;;;;4970599;28;20840;-68
2022/10/05 13:12:36;;;;;;;4.33;0.80;;;;;;;;;;4970874;28;20430;-70
2022/10/05 13:15:07;;;;;;;0.53;0.53;;;;;;;;;;4970806;28;20445;-70
2022/10/05 13:17:38;;;;;;;0.90;0.90;;;;;;;;;;4970283;28;20521;-68
2022/10/05 13:20:27;;;;;;;6.10;1.10;;;;;;;;;;4970797;28;20799;-68
2022/10/05 13:23:07;;;;;;;0.60;0.60;;;;;;;;;;4970837;28;20563;-69
2022/10/05 13:25:50;;;;;;;0.63;0.63;;;;;;;;;;4972393;28;20429;-70
2022/10/05 13:28:18;;;;;;;0.50;0.50;;;;;;;;;;4974930;28;20485;-70
2022/10/05 13:31:05;;;;;;;2.37;0.80;;;;;;;;;;4974931;28;20493;-69
2022/10/05 13:33:37;;;;;;;1.10;1.07;;;;;;;;;;4974430;28;20422;-70
2022/10/05 13:36:07;;;;;;;2.73;1.03;;;;;;;;;;4972724;28;20449;-69
2022/10/05 13:38:35;;;;;;;0.97;0.80;;;;;;;;;;4974454;28;21096;-69
2022/10/05 13:41:11;;;;;;;1.00;0.97;;;;;;;;;;4974508;28;20485;-68
2022/10/05 13:43:52;;;;;;;0.83;0.83;;;;;;;;;;4974364;28;20914;-69
2022/10/05 13:46:35;;;;;;;1.90;1.07;;;;;;;;;;4973820;28;20442;-69
2022/10/05 13:49:14;;;;;;;3.47;0.73;;;;;;;;;;4973973;28;20813;-69
2022/10/05 13:51:46;;;;;;;1.97;0.67;;;;;;;;;;4974237;28;20935;-69
2022/10/05 13:54:32;;;;;;;2.30;2.10;;;;;;;;;;4974527;28;20409;-68
2022/10/05 13:57:05;;;;;;;0.70;0.70;;;;;;;;;;4963704;28;20461;-69
2022/10/05 13:59:45;;;;;;;1.00;1.00;;;;;;;;;;4974124;28;20448;-69
2022/10/05 14:02:16;;;;;;;1.30;0.70;;;;;;;;;;4973839;28;20453;-68
2022/10/05 14:04:52;;;;;;;2.00;0.80;;;;;;;;;;4974058;28;20453;-69
2022/10/05 14:07:24;;;;;;;3.13;0.80;;;;;;;;;;4973205;28;21155;-68
2022/10/05 14:09:50;;;;;;;12.63;1.03;;;;;;;;;;4973744;28;20513;-69
2022/10/05 14:12:20;;;;;;;1.03;1.03;;;;;;;;;;4973821;28;20448;-69
2022/10/05 14:14:50;;;;;;;1.80;1.27;;;;;;;;;;4973907;28;20422;-69
2022/10/05 14:17:36;;;;;;;0.70;0.70;;;;;;;;;;4973834;28;20428;-69
2022/10/05 14:20:17;;;;;;;5.20;1.13;;;;;;;;;;4971933;28;20434;-69
2022/10/05 14:22:44;;;;;;;1.00;0.90;;;;;;;;;;4973802;28;20437;-70
2022/10/05 14:25:18;;;;;;;3.90;0.93;;;;;;;;;;4973450;28;20493;-69
2022/10/05 14:27:59;;;;;;;0.80;0.80;;;;;;;;;;4973571;28;20851;-69
2022/10/05 14:30:26;;;;;;;4.17;1.03;;;;;;;;;;4973491;28;20508;-70
2022/10/05 14:33:05;;;;;;;2.60;0.90;;;;;;;;;;4973798;28;20426;-70
2022/10/05 14:35:43;;;;;;;8.90;0.93;;;;;;;;;;4971885;28;20441;-70
2022/10/05 14:38:30;;;;;;;10.30;1.23;;;;;;;;;;4971195;28;20466;-69
2022/10/05 14:41:26;;;;;;;0.70;0.70;;;;;;;;;;4973875;28;20516;-70
2022/10/05 14:43:52;;;;;;;6.13;2.07;;;;;;;;;;4971954;28;20715;-71
2022/10/05 14:46:18;;;;;;;0.90;0.90;;;;;;;;;;4972817;28;20958;-70
2022/10/05 14:48:45;;;;;;;0.93;0.93;;;;;;;;;;4972621;28;20453;-70
2022/10/05 14:51:27;;;;;;;0.97;0.80;;;;;;;;;;4973173;28;20426;-70
2022/10/05 14:53:57;;;;;;;1.07;1.07;;;;;;;;;;4972603;28;20500;-68
2022/10/05 14:56:42;;;;;;;0.83;0.83;;;;;;;;;;4971914;28;20438;-70
2022/10/05 14:59:21;;;;;;;1.97;0.97;;;;;;;;;;4973225;28;20492;-70
2022/10/05 15:01:54;;;;;;;0.90;0.90;;;;;;;;;;4972852;28;20844;-69
2022/10/05 15:04:35;;;;;;;1.30;1.17;;;;;;;;;;4972155;28;20430;-69
2022/10/05 15:07:11;;;;;;;1.57;1.47;;;;;;;;;;4972042;28;20482;-69
2022/10/05 15:09:49;;;;;;;1.30;1.20;;;;;;;;;;4972887;28;20922;-69
2022/10/05 15:12:21;;;;;;;0.87;0.87;;;;;;;;;;4972928;28;20457;-69
2022/10/05 15:14:48;;;;;;;0.77;0.77;;;;;;;;;;4971648;28;20445;-69
2022/10/05 15:17:25;;;;;;;5.17;1.00;;;;;;;;;;4972858;28;20410;-69
2022/10/05 15:20:27;;;;;;;2.00;1.07;;;;;;;;;;4972043;28;20473;-70
2022/10/05 15:22:59;;;;;;;3.17;1.40;;;;;;;;;;4911410;29;20531;-69
2022/10/05 15:25:29;;;;;;;4.30;1.40;;;;;;;;;;4962429;28;20526;-69
2022/10/05 15:28:15;;;;;;;1.87;1.20;;;;;;;;;;4972560;28;20602;-69
2022/10/05 15:30:46;;;;;;;1.27;1.27;;;;;;;;;;4972238;28;20941;-69
2022/10/05 15:33:14;;;;;;;0.97;0.97;;;;;;;;;;4972067;28;20943;-70
2022/10/05 15:35:59;;;;;;;0.80;0.70;;;;;;;;;;4970414;28;20524;-70